Latest Weather Observations for Clermont Airport

IDQ60801

Issued at 7:43 pm EST Monday 22 April 2024 (issued every 10 minutes, with the page automatically refreshed every 10 minutes)

About weather observations | Map of weather stations | Latest weather observations for QLD | Other Formats
Station Details ID: 035124 Name: CLERMONT AIRPORT Lat: -22.78 Lon: 147.62 Height: 270.27 m
Data from the previous 72 hours. | See also: Recent months at Clermont Airport
Date/Time
EST
Temp
°C
App
Temp
°C
Dew
Point
°C
Rel
Hum
%
Delta-T
°C
Wind Press
QNH
hPa
Press
MSL
hPa
Rain since
9am
mm
Dir  Spd
km/h
Gust
km/h
Spd
kts
Gust
kts
22/07:30pm 23.7 24.4 14.4 56 5.5 SE 4 9 2 5 1018.5 1017.2 0.0
22/07:00pm 24.0 24.2 14.1 54 5.9 SE 6 9 3 5 1017.9 1016.7 0.0
22/06:30pm 24.5 24.7 14.3 53 6.1 SE 6 13 3 7 1017.6 1016.4 0.0
22/06:00pm 24.9 24.6 14.4 52 6.3 SE 9 15 5 8 1017.2 1016.0 0.0
22/05:30pm 25.6 24.5 14.4 50 6.7 ESE 13 24 7 13 1017.1 1015.9 0.0
22/05:00pm 25.9 25.2 14.4 49 6.9 E 11 20 6 11 1016.7 1015.5 0.0
22/04:30pm 26.1 24.9 13.9 47 7.3 ESE 13 24 7 13 1016.4 1015.2 0.0
22/04:00pm 26.6 25.0 14.0 46 7.6 ESE 15 28 8 15 1016.3 1015.1 0.0
22/03:30pm 26.7 24.5 13.4 43 7.9 SE 17 26 9 14 1016.2 1015.0 0.0
22/03:00pm 27.1 25.2 14.1 44 7.8 ESE 17 28 9 15 1016.2 1015.0 0.0
22/02:30pm 27.6 26.8 13.9 43 8.3 SE 11 22 6 12 1016.3 1015.1 0.0
22/02:00pm 26.3 24.8 14.1 47 7.3 ESE 15 28 8 15 1016.5 1015.3 0.0
22/01:30pm 26.7 24.8 14.1 46 7.6 E 17 28 9 15 1016.8 1015.6 0.0
22/01:00pm 26.6 24.3 14.0 46 7.6 E 19 30 10 16 1017.1 1015.9 0.0
22/12:30pm 25.7 24.2 14.2 49 6.9 ESE 15 30 8 16 1017.5 1016.3 0.0
22/12:00pm 24.6 23.2 14.4 53 6.1 SE 15 28 8 15 1018.3 1017.0 0.0
22/11:30am 24.1 22.8 14.8 56 5.6 SE 15 28 8 15 1018.8 1017.5 0.0
22/11:00am 23.2 21.1 14.7 58 5.1 ESE 19 35 10 19 1019.1 1017.9 0.0
22/10:30am 22.8 20.6 14.9 61 4.7 SE 20 32 11 17 1019.3 1018.1 0.0
22/10:00am 21.4 20.6 15.0 67 3.8 ESE 13 26 7 14 1019.6 1018.4 0.0
22/09:30am 20.9 19.8 15.2 70 3.4 SE 15 26 8 14 1019.8 1018.6 0.0
22/09:00am 19.6 18.1 15.3 76 2.6 SSE 17 28 9 15 1019.9 1018.7 0.0
22/08:30am 18.5 16.8 14.8 79 2.2 SE 17 28 9 15 1019.8 1018.6 0.0
22/08:00am 17.9 17.0 14.8 82 1.8 SE 13 28 7 15 1019.7 1018.5 0.0
22/07:30am 17.0 16.5 14.8 87 1.3 SE 11 19 6 10 1019.6 1018.4 0.0
22/07:00am 16.4 16.2 14.6 89 1.0 SE 9 15 5 8 1019.2 1018.0 0.0
22/06:30am 16.6 15.2 14.6 88 1.2 SE 15 22 8 12 1018.9 1017.6 0.0
22/06:00am 16.9 15.9 14.7 87 1.3 SE 13 20 7 11 1018.6 1017.3 0.0
22/05:30am 17.1 16.1 14.6 85 1.5 SE 13 22 7 12 1018.5 1017.2 0.0
22/05:00am 17.3 16.4 14.8 85 1.5 SSE 13 22 7 12 1018.3 1017.0 0.0
22/04:44am 17.3 16.0 14.8 85 1.5 SSE 15 28 8 15 1018.2 1016.9 0.0
22/04:30am 17.2 15.5 14.7 85 1.5 SSE 17 28 9 15 1018.1 1016.8 0.0
22/04:20am 17.2 15.5 14.8 86 1.4 SSE 17 30 9 16 1017.9 1016.7 0.0
22/04:00am 16.9 16.0 14.9 88 1.2 SSE 13 24 7 13 1017.9 1016.7 0.0
22/03:57am 16.9 16.0 14.9 88 1.2 SSE 13 24 7 13 1017.9 1016.7 0.0
22/03:30am 16.6 16.1 14.8 89 1.0 SSE 11 20 6 11 1017.9 1016.7 0.0
22/03:00am 16.4 15.8 14.6 89 1.0 SSE 11 19 6 10 1018.1 1016.8 0.0
22/02:30am 15.9 15.6 14.4 91 0.9 SSE 9 13 5 7 1017.8 1016.6 0.0
22/02:00am 15.3 15.5 14.2 93 0.6 SE 6 9 3 5 1018.1 1016.8 0.0
22/01:30am 15.7 15.7 14.1 90 0.9 SSE 7 11 4 6 1017.9 1016.7 0.0
22/01:00am 15.9 16.0 13.9 88 1.1 SSE 6 9 3 5 1018.4 1017.1 0.0
22/12:30am 16.3 15.9 14.0 86 1.3 SSE 9 15 5 8 1018.6 1017.3 0.0
22/12:00am 16.7 15.9 14.0 84 1.5 SSE 11 17 6 9 1018.9 1017.6 0.0
 
Date/Time
EST
Temp
°C
App
Temp
°C
Dew
Point
°C
Rel
Hum
%
Delta-T
°C
Wind Press
QNH
hPa
Press
MSL
hPa
Rain since
9am
mm
Dir  Spd
km/h
Gust
km/h
Spd
kts
Gust
kts
21/11:30pm 17.1 15.8 13.8 81 1.9 SSE 13 19 7 10 1019.1 1017.9 0.0
21/11:00pm 17.4 16.5 13.7 79 2.1 SSE 11 19 6 10 1019.5 1018.3 0.0
21/10:30pm 17.8 16.4 13.5 76 2.5 SSE 13 22 7 12 1019.2 1018.0 0.0
21/10:00pm 18.2 16.8 13.5 74 2.7 SSE 13 24 7 13 1019.4 1018.2 0.0
21/09:30pm 18.3 16.8 13.0 71 3.0 SSE 13 20 7 11 1019.4 1018.2 0.0
21/09:00pm 18.6 16.6 12.8 69 3.3 SSE 15 20 8 11 1019.4 1018.2 0.0
21/08:30pm 18.9 18.0 12.6 67 3.6 SSE 9 15 5 8 1019.4 1018.2 0.0
21/08:00pm 19.5 18.3 12.8 65 3.8 SSE 11 20 6 11 1019.0 1017.7 0.0
21/07:30pm 20.0 18.5 12.0 60 4.5 SSE 11 15 6 8 1018.9 1017.6 0.0
21/07:00pm 20.6 19.4 11.5 56 5.1 SSE 9 15 5 8 1018.4 1017.1 0.0
21/06:30pm 21.1 19.7 10.9 52 5.7 SSE 9 15 5 8 1017.9 1016.7 0.0
21/06:00pm 21.9 19.8 11.0 50 6.1 SSE 13 20 7 11 1017.1 1015.9 0.0
21/05:30pm 22.8 20.3 10.9 47 6.7 SSE 15 24 8 13 1016.7 1015.5 0.0
21/05:00pm 23.5 20.7 11.2 46 7.0 SSE 17 33 9 18 1016.3 1015.1 0.0
21/04:30pm 23.7 20.5 11.4 46 7.0 SSE 19 32 10 17 1016.1 1014.9 0.0
21/04:00pm 23.8 20.3 10.8 44 7.3 SSE 20 32 11 17 1015.9 1014.7 0.0
21/03:30pm 25.0 21.5 10.8 41 8.0 SSE 20 32 11 17 1015.6 1014.3 0.0
21/03:00pm 25.6 22.5 10.2 38 8.6 SSE 17 30 9 16 1015.5 1014.2 0.0
21/02:30pm 23.9 19.3 9.5 40 7.9 SSE 24 43 13 23 1015.5 1014.2 0.0
21/02:00pm 25.6 22.2 11.4 41 8.1 SSE 20 33 11 18 1015.5 1014.2 0.0
21/01:30pm 24.4 21.1 11.0 43 7.6 SSE 19 30 10 16 1015.7 1014.4 0.0
21/01:00pm 24.4 22.6 12.0 46 7.1 SE 13 22 7 12 1015.8 1014.6 0.0
21/12:30pm 23.2 20.5 11.6 48 6.6 SSE 17 28 9 15 1016.5 1015.3 0.0
21/12:00pm 23.1 20.5 12.1 50 6.3 SSE 17 26 9 14 1017.1 1015.9 0.0
21/11:30am 22.2 19.6 11.9 52 5.9 SE 17 26 9 14 1017.8 1016.6 0.0
21/11:00am 20.9 17.7 11.8 56 5.1 S 20 32 11 17 1018.5 1017.2 0.0
21/10:30am 21.2 18.1 12.3 57 5.1 SSE 20 30 11 16 1018.9 1017.6 0.0
21/10:00am 19.2 16.0 11.3 60 4.4 SE 19 28 10 15 1019.2 1018.0 0.0
21/09:30am 18.9 16.4 11.2 61 4.3 SSE 15 24 8 13 1019.2 1018.0 0.0
21/09:00am 17.4 14.6 11.2 67 3.4 SSE 17 24 9 13 1019.3 1018.1 0.0
21/08:30am 15.6 13.8 10.8 73 2.6 SSE 11 17 6 9 1019.4 1018.2 0.0
21/08:00am 14.8 12.5 10.6 76 2.2 SSE 13 19 7 10 1019.2 1018.0 0.0
21/07:30am 14.1 12.1 10.3 78 2.0 S 11 15 6 8 1019.0 1017.7 0.0
21/07:00am 13.2 12.2 10.2 82 1.6 S 6 9 3 5 1018.8 1017.5 0.0
21/06:30am 12.7 11.1 10.1 84 1.4 S 9 13 5 7 1018.6 1017.3 0.0
21/06:00am 12.0 10.6 9.7 86 1.2 S 7 9 4 5 1018.1 1016.8 0.0
21/05:30am 12.1 10.4 10.0 87 1.1 SSW 9 13 5 7 1017.4 1016.2 0.0
21/05:00am 12.0 10.8 9.6 85 1.2 SSW 6 7 3 4 1017.3 1016.1 0.0
21/04:30am 13.0 11.7 10.0 82 1.6 SSE 7 15 4 8 1017.0 1015.8 0.0
21/04:00am 13.1 12.0 10.1 82 1.6 S 6 9 3 5 1017.1 1015.9 0.0
21/03:30am 13.7 12.4 10.1 79 1.9 SSE 7 15 4 8 1017.1 1015.9 0.0
21/03:00am 14.2 11.8 10.0 76 2.2 SSE 13 20 7 11 1017.3 1016.1 0.0
21/02:30am 14.5 11.6 9.7 73 2.5 SSE 15 24 8 13 1017.1 1015.9 0.0
21/02:00am 14.8 11.8 9.4 70 2.8 SSE 15 20 8 11 1017.7 1016.5 0.0
21/01:30am 14.9 12.2 9.1 68 3.0 S 13 22 7 12 1017.7 1016.5 0.0
21/01:00am 15.3 13.0 9.0 66 3.3 SSE 11 17 6 9 1018.1 1016.8 0.0
21/12:30am 15.8 13.1 9.0 64 3.5 SSE 13 20 7 11 1018.4 1017.1 0.0
21/12:00am 16.3 13.6 8.8 61 3.9 SSE 13 22 7 12 1018.6 1017.3 0.0
 
Date/Time
EST
Temp
°C
App
Temp
°C
Dew
Point
°C
Rel
Hum
%
Delta-T
°C
Wind Press
QNH
hPa
Press
MSL
hPa
Rain since
9am
mm
Dir  Spd
km/h
Gust
km/h
Spd
kts
Gust
kts
20/11:30pm 16.8 13.6 8.5 58 4.3 SSE 15 26 8 14 1018.6 1017.3 0.0
20/11:00pm 17.3 14.6 10.2 63 3.8 SSE 15 22 8 12 1018.7 1017.4 0.0
20/10:30pm 17.7 15.6 11.0 65 3.7 SSE 13 20 7 11 1018.6 1017.3 0.0
20/10:00pm 18.2 16.4 10.8 62 4.0 SSE 11 19 6 10 1018.6 1017.3 0.0
20/09:30pm 18.8 16.6 10.9 60 4.3 SSE 13 19 7 10 1018.6 1017.3 0.0
20/09:00pm 19.1 16.9 10.9 59 4.5 SSE 13 20 7 11 1018.2 1016.9 0.0
20/08:30pm 19.0 17.6 10.8 59 4.5 SSE 9 15 5 8 1017.8 1016.6 0.0
20/08:00pm 19.4 16.0 10.7 57 4.8 SE 19 26 10 14 1017.6 1016.4 0.0
20/07:30pm 19.9 18.6 11.4 58 4.7 SSE 9 20 5 11 1017.1 1015.9 0.0
20/07:00pm 20.4 18.1 11.6 57 4.9 SSE 15 22 8 12 1016.6 1015.4 0.0
20/06:30pm 20.6 19.0 11.5 56 5.1 SE 11 20 6 11 1016.1 1014.9 0.0
20/06:00pm 21.0 18.9 11.1 53 5.5 SE 13 22 7 12 1016.0 1014.8 0.0
20/05:30pm 21.8 18.7 11.5 52 5.8 SE 19 30 10 16 1015.5 1014.2 0.0
20/05:00pm 23.2 20.2 11.9 49 6.5 SSE 19 28 10 15 1014.9 1013.6 0.0
20/04:30pm 24.5 21.1 12.5 47 7.0 SSE 22 33 12 18 1014.5 1013.2 0.0
20/04:00pm 24.6 21.4 11.9 45 7.3 SSE 20 32 11 17 1014.2 1012.9 0.0
20/03:30pm 24.6 21.5 12.2 46 7.2 S 20 32 11 17 1013.9 1012.7 0.0
20/03:00pm 26.1 22.7 12.5 42 8.0 SSE 22 33 12 18 1013.8 1012.6 0.0
20/02:30pm 26.1 24.1 13.9 47 7.3 SSE 17 24 9 13 1013.9 1012.7 0.0
20/02:00pm 26.7 25.5 14.1 46 7.6 SSW 13 17 7 9 1014.0 1012.8 0.0
20/01:30pm 26.3 25.4 13.8 46 7.5 SSE 11 17 6 9 1014.2 1012.9 0.0
20/01:00pm 26.7 25.4 13.8 45 7.7 SSE 13 19 7 10 1014.6 1013.3 0.0
20/12:30pm 25.7 25.6 13.9 48 7.1 S 7 15 4 8 1015.0 1013.7 0.0
20/12:00pm 26.4 25.0 13.5 45 7.7 SSE 13 19 7 10 1015.4 1014.1 0.0
20/11:30am 25.5 23.9 12.7 45 7.5 SSE 13 20 7 11 1016.0 1014.8 0.0
20/11:00am 25.2 23.9 12.4 45 7.4 S 11 20 6 11 1016.5 1015.3 0.0
20/10:30am 23.6 21.2 11.3 46 7.0 S 15 20 8 11 1017.0 1015.8 0.0
20/10:00am 23.6 21.1 11.0 45 7.1 SSE 15 19 8 10 1017.2 1016.0 0.0
20/09:30am 22.4 19.7 10.5 47 6.6 SSE 15 24 8 13 1017.5 1016.3 0.0
20/09:00am 21.5 19.2 10.3 49 6.2 SSE 13 19 7 10 1017.6 1016.4 0.0
20/08:30am 21.5 19.3 10.9 51 5.9 SSE 13 26 7 14 1017.3 1016.1 0.0
20/08:00am 21.7 20.1 11.7 53 5.6 SSE 11 19 6 10 1017.1 1015.9 0.0
20/07:30am 21.0 19.3 12.4 58 4.9 S 13 19 7 10 1016.8 1015.6 0.0
20/07:00am 20.9 19.9 13.4 62 4.3 S 11 19 6 10 1016.5 1015.3 0.0
20/06:30am 20.7 19.5 13.9 65 4.0 S 13 19 7 10 1015.9 1014.7 0.0
20/06:00am 21.0 21.3 14.6 67 3.8 SSE 6 9 3 5 1015.4 1014.1 0.0
20/05:30am 21.1 20.9 15.6 71 3.3 S 11 20 6 11 1015.3 1014.0 0.0
20/05:00am 21.4 21.2 16.6 74 2.9 S 13 17 7 9 1015.2 1013.9 0.0
20/04:30am 22.0 21.7 16.5 71 3.4 SE 13 19 7 10 1014.8 1013.5 0.0
20/04:00am 22.3 21.8 16.8 71 3.4 SSE 15 22 8 12 1014.5 1013.2 0.0
20/03:30am 22.6 22.2 17.1 71 3.4 SSE 15 24 8 13 1014.5 1013.2 0.0
20/03:00am 23.3 23.8 17.5 70 3.6 SSE 11 19 6 10 1014.4 1013.1 0.0
20/02:30am 23.2 23.9 17.0 68 3.9 S 9 13 5 7 1014.2 1012.9 0.0
20/02:00am 23.3 24.5 16.8 67 4.0 SW 6 9 3 5 1014.2 1012.9 0.0
20/01:30am 23.6 24.7 16.6 65 4.3 SSW 6 9 3 5 1014.4 1013.1 0.0
20/01:00am 23.9 24.7 16.4 63 4.6 SSW 7 9 4 5 1014.7 1013.4 0.0
20/12:30am 24.0 26.0 16.0 61 4.9 CALM 0 0 0 0 1014.5 1013.2 0.0
20/12:00am 24.3 25.1 15.8 59 5.2 S 6 6 3 3 1014.8 1013.5 0.0
 
Date/Time
EST
Temp
°C
App
Temp
°C
Dew
Point
°C
Rel
Hum
%
Delta-T
°C
Wind Press
QNH
hPa
Press
MSL
hPa
Rain since
9am
mm
Dir  Spd
km/h
Gust
km/h
Spd
kts
Gust
kts
19/11:30pm 24.4 25.6 15.9 59 5.2 S 4 6 2 3 1014.9 1013.6 0.0
19/11:00pm 24.8 26.8 16.0 58 5.4 CALM 0 0 0 0 1015.1 1013.8 0.0
19/10:30pm 25.3 27.1 15.6 55 5.9 CALM 0 0 0 0 1015.0 1013.7 0.0
19/10:00pm 25.4 26.5 15.7 55 6.0 NE 4 7 2 4 1015.0 1013.7 0.0
19/09:30pm 25.1 26.3 16.0 57 5.6 SSW 4 7 2 4 1015.2 1013.9 0.0
19/09:00pm 25.0 25.9 16.2 58 5.4 N 6 9 3 5 1015.5 1014.2 0.0
19/08:30pm 25.2 26.5 16.1 57 5.6 SSW 4 7 2 4 1015.3 1014.0 0.0
19/08:00pm 26.4 25.6 16.1 53 6.4 SSW 15 26 8 14 1015.1 1013.8 0.0

Other formats

Comma delimited format used in spreadsheet applications
http://www.bom.gov.au/fwo/IDQ60801/IDQ60801.94395.axf

JavaScript Object Notation format (JSON) in row-major order
http://www.bom.gov.au/fwo/IDQ60801/IDQ60801.94395.json

Data quality

Most of these data are generated automatically and are frequently updated. Quality checks on data are not normally performed. It is possible for incorrect values to appear. Refer to information at About Latest Weather Observations and please check the disclaimer before using these data.